Time;durP1;ratioP1;P1;durP2;ratioP2;P2;SDS_P1;SDS_P2;PMS_P1;PMS_P2;Temp;Humidity;BMP_temperature;BMP_pressure;BME280_temperature;BME280_humidity;BME280_pressure;Samples;Min_cycle;Max_cycle;Signal;HPM_P1;HPM_P2
2022/10/15 00:00:39;;;;;;;3.33;1.70;;;;;;;20.41;60.01;63353.47;17106614;28;20238;-31
2022/10/15 00:08:56;;;;;;;4.83;1.93;;;;;;;20.42;60.12;63349.34;17089323;28;20215;-31
2022/10/15 00:17:14;;;;;;;4.70;1.70;;;;;;;20.40;60.10;63349.16;17087198;28;20325;-31
2022/10/15 00:25:31;;;;;;;4.97;1.93;;;;;;;20.41;60.17;63350.84;17108237;28;20191;-31
2022/10/15 00:33:51;;;;;;;4.13;1.67;;;;;;;20.40;60.02;63349.72;17093768;28;20254;-31
2022/10/15 00:42:09;;;;;;;4.67;2.10;;;;;;;20.38;60.10;63347.47;17110616;28;20284;-31
2022/10/15 00:50:27;;;;;;;3.93;1.50;;;;;;;20.43;59.94;63357.78;17107691;28;20225;-31
2022/10/15 00:58:44;;;;;;;4.43;1.70;;;;;;;20.41;59.89;63350.84;17110029;28;20229;-31
2022/10/15 01:07:03;;;;;;;3.93;1.67;;;;;;;20.39;60.04;63348.59;17108596;28;20227;-30
2022/10/15 01:15:25;;;;;;;3.93;1.80;;;;;;;20.38;60.07;63350.09;17092590;28;20250;-31
2022/10/15 01:24:13;;;;;;;3.60;1.60;;;;;;;20.38;60.14;63350.09;17101458;28;20219;-31
2022/10/15 01:32:36;;;;;;;3.20;1.40;;;;;;;20.38;60.08;63350.09;17104247;28;20221;-31
2022/10/15 01:40:57;;;;;;;3.63;1.83;;;;;;;20.35;60.16;63346.13;17102347;28;20279;-31
2022/10/15 01:49:21;;;;;;;3.67;1.70;;;;;;;20.34;60.09;63342.41;17108592;28;20215;-31
2022/10/15 01:57:41;;;;;;;4.20;1.73;;;;;;;20.34;60.18;63345.59;17104179;28;20241;-30
2022/10/15 02:06:05;;;;;;;4.37;1.80;;;;;;;20.33;59.95;63344.47;17092108;28;20205;-31
2022/10/15 02:14:29;;;;;;;3.27;1.57;;;;;;;20.32;60.16;63340.72;17095235;28;20218;-30
2022/10/15 02:22:54;;;;;;;4.63;1.70;;;;;;;20.30;60.24;63335.81;17119187;28;20218;-30
2022/10/15 02:31:14;;;;;;;5.20;1.90;;;;;;;20.32;60.12;63343.34;17108594;28;20226;-31
2022/10/15 02:39:33;;;;;;;3.33;1.43;;;;;;;20.32;60.14;63345.97;17118238;28;20241;-31
2022/10/15 02:47:50;;;;;;;5.30;2.63;;;;;;;20.29;60.10;63339.97;17118742;28;20218;-31
2022/10/15 02:56:09;;;;;;;4.57;1.60;;;;;;;20.30;60.12;63340.53;17106298;28;20219;-31
2022/10/15 03:04:26;;;;;;;3.83;1.77;;;;;;;20.29;60.15;63334.13;17025029;28;20213;-30
2022/10/15 03:12:44;;;;;;;3.50;1.47;;;;;;;20.28;60.19;63338.81;17154059;23;20256;-33
2022/10/15 03:21:01;;;;;;;5.13;1.87;;;;;;;20.26;60.22;63333.94;17119894;28;20325;-33
2022/10/15 03:29:19;;;;;;;4.63;1.87;;;;;;;20.23;60.41;63333.75;17066230;28;20198;-33
2022/10/15 03:37:36;;;;;;;4.03;1.90;;;;;;;20.22;60.35;63329.44;17045670;28;20600;-33
2022/10/15 03:45:54;;;;;;;5.17;1.90;;;;;;;20.23;60.14;63328.50;17054158;28;20219;-33
2022/10/15 03:54:11;;;;;;;4.10;1.70;;;;;;;20.21;60.15;63325.69;17047310;28;20223;-33
2022/10/15 04:02:31;;;;;;;3.83;1.80;;;;;;;20.18;60.27;63322.31;17039744;28;20633;-33
2022/10/15 04:10:48;;;;;;;3.80;1.50;;;;;;;20.20;60.26;63330.38;17034123;28;20235;-33
2022/10/15 04:19:06;;;;;;;4.20;1.50;;;;;;;20.21;60.16;63328.31;17066768;28;20717;-33
2022/10/15 04:27:23;;;;;;;3.60;1.70;;;;;;;20.18;60.29;63322.88;17060892;28;21106;-33
2022/10/15 04:35:41;;;;;;;4.70;1.53;;;;;;;20.17;60.25;63327.00;17041848;28;20577;-33
2022/10/15 04:43:58;;;;;;;3.57;1.50;;;;;;;20.17;60.29;63326.41;17027072;28;20588;-33
2022/10/15 04:52:16;;;;;;;3.63;1.30;;;;;;;20.14;60.18;63321.00;17058741;28;20592;-33
2022/10/15 05:00:33;;;;;;;3.30;1.50;;;;;;;20.17;60.30;63326.41;17050651;28;20258;-33
2022/10/15 05:08:51;;;;;;;3.60;1.53;;;;;;;20.16;60.21;63323.22;17057259;28;20424;-33
2022/10/15 05:17:08;;;;;;;3.40;1.30;;;;;;;20.14;60.33;63317.78;17073243;28;20228;-33
2022/10/15 05:25:26;;;;;;;3.13;1.33;;;;;;;20.14;60.32;63323.03;17044096;28;20275;-33
2022/10/15 05:33:43;;;;;;;3.60;1.67;;;;;;;20.14;60.32;63317.78;17080846;28;20230;-33
2022/10/15 05:42:01;;;;;;;4.13;1.40;;;;;;;20.11;60.43;63314.41;17052573;28;20231;-33
2022/10/15 05:50:18;;;;;;;3.77;1.40;;;;;;;20.11;60.33;63319.66;17050666;28;20677;-33
2022/10/15 05:58:37;;;;;;;3.77;1.70;;;;;;;20.12;60.34;63318.16;17045885;28;20728;-33
2022/10/15 06:06:53;;;;;;;3.20;1.47;;;;;;;20.13;60.17;63324.53;17046779;28;20557;-33
2022/10/15 06:15:12;;;;;;;3.23;1.50;;;;;;;20.12;60.18;63323.41;17032379;28;20626;-33
2022/10/15 06:23:29;;;;;;;4.50;1.60;;;;;;;20.10;60.24;63318.53;17043958;28;20588;-33
2022/10/15 06:31:47;;;;;;;3.60;1.43;;;;;;;20.12;60.29;63315.53;17026360;28;20288;-33
2022/10/15 06:40:05;;;;;;;3.20;1.50;;;;;;;20.12;60.15;63323.41;17038603;28;20569;-33
2022/10/15 06:48:23;;;;;;;3.30;1.53;;;;;;;20.06;60.47;63314.03;17020027;28;20646;-33
2022/10/15 06:56:40;;;;;;;3.67;1.50;;;;;;;20.09;60.39;63320.03;17027778;28;20561;-33
2022/10/15 07:04:58;;;;;;;6.90;2.07;;;;;;;20.21;60.58;63330.94;17041804;28;20675;-34
2022/10/15 07:13:15;;;;;;;9.70;1.93;;;;;;;20.16;61.96;63323.22;17017827;28;20711;-33
2022/10/15 07:21:33;;;;;;;3.20;1.33;;;;;;;19.99;62.25;63307.28;17046754;28;20775;-34
2022/10/15 07:29:50;;;;;;;7.63;1.80;;;;;;;20.08;61.96;63313.66;17036779;28;20815;-33
2022/10/15 07:38:08;;;;;;;9.17;1.83;;;;;;;20.09;61.77;63320.03;17041065;28;20714;-33
2022/10/15 07:46:25;;;;;;;5.00;1.50;;;;;;;20.09;61.49;63317.41;17045087;28;20697;-33
2022/10/15 07:54:43;;;;;;;3.73;1.70;;;;;;;20.09;61.48;63317.41;17041919;28;20703;-33
2022/10/15 08:03:00;;;;;;;6.67;1.30;;;;;;;20.09;61.30;63317.97;17060760;28;20719;-33
2022/10/15 08:11:19;;;;;;;4.03;1.53;;;;;;;20.10;61.23;63321.72;17058837;28;20703;-33
2022/10/15 08:19:35;;;;;;;10.00;1.77;;;;;;;20.08;61.15;63314.22;17076419;28;20733;-33
2022/10/15 08:27:55;;;;;;;5.50;1.70;;;;;;;20.09;61.06;63320.03;17070297;28;20793;-33
2022/10/15 08:36:12;;;;;;;3.90;1.70;;;;;;;20.11;60.79;63319.66;17080876;28;20778;-34
2022/10/15 08:44:33;;;;;;;5.20;1.60;;;;;;;20.10;60.95;63313.28;17041910;28;20691;-33
2022/10/15 08:52:51;;;;;;;3.40;1.43;;;;;;;20.08;60.82;63316.84;17060592;28;20866;-33
2022/10/15 09:01:18;;;;;;;8.10;1.87;;;;;;;20.08;60.83;63316.28;17138650;22;20233;-34
2022/10/15 09:09:42;;;;;;;3.83;1.40;;;;;;;20.10;60.79;63315.91;17059210;28;20219;-34
2022/10/15 09:18:01;;;;;;;4.40;1.73;;;;;;;20.07;60.87;63312.53;17188211;23;20283;-32
2022/10/15 09:26:27;;;;;;;5.00;1.67;;;;;;;20.10;60.60;63315.91;17146782;28;20217;-32
2022/10/15 09:34:51;;;;;;;3.87;1.93;;;;;;;20.10;60.53;63315.91;17131816;28;20241;-32
2022/10/15 09:43:10;;;;;;;3.70;1.60;;;;;;;20.10;60.56;63316.47;17142171;28;20363;-32
2022/10/15 09:51:34;;;;;;;4.30;1.50;;;;;;;20.09;60.54;63320.03;17122875;28;20240;-32
2022/10/15 09:59:55;;;;;;;7.63;1.73;;;;;;;20.08;60.58;63316.28;17135521;28;20497;-32
2022/10/15 10:08:18;;;;;;;4.03;1.50;;;;;;;20.06;60.64;63314.03;17133629;28;20222;-32
2022/10/15 10:16:56;;;;;;;3.73;1.50;;;;;;;20.06;60.70;63314.03;17116969;28;20236;-32
2022/10/15 10:25:38;;;;;;;3.40;1.50;;;;;;;20.09;60.43;63317.41;17100737;28;20276;-32
2022/10/15 10:33:55;;;;;;;4.03;1.63;;;;;;;20.12;60.31;63320.78;17103715;28;20317;-32
2022/10/15 10:42:32;;;;;;;4.23;1.60;;;;;;;20.14;60.24;63323.03;17129491;28;20227;-32
2022/10/15 10:50:49;;;;;;;4.90;1.60;;;;;;;20.14;60.44;63321.00;17148077;28;20229;-32
2022/10/15 10:59:15;;;;;;;4.13;1.57;;;;;;;20.16;60.40;63325.28;17136499;28;20228;-32
2022/10/15 11:07:39;;;;;;;3.50;1.70;;;;;;;20.17;60.12;63327.00;17139871;28;20234;-31
2022/10/15 11:16:01;;;;;;;3.57;1.47;;;;;;;20.18;60.19;63330.19;17137160;28;20340;-31
2022/10/15 11:24:25;;;;;;;3.57;1.77;;;;;;;20.18;60.21;63325.50;17129990;28;20223;-31
2022/10/15 11:32:54;;;;;;;4.37;1.60;;;;;;;20.19;60.52;63329.22;17128556;28;20328;-31
2022/10/15 11:41:27;;;;;;;3.00;1.30;;;;;;;20.25;60.28;63338.06;17138163;28;20230;-31
2022/10/15 11:50:00;;;;;;;3.30;1.47;;;;;;;20.20;60.20;63329.78;17117777;28;20213;-31
2022/10/15 11:58:27;;;;;;;2.93;1.20;;;;;;;20.30;60.16;63338.44;17128140;28;20249;-31
2022/10/15 12:06:50;;;;;;;3.00;1.30;;;;;;;20.30;60.10;63335.28;17130127;28;20227;-31
2022/10/15 12:15:27;;;;;;;3.50;1.40;;;;;;;20.32;60.23;63345.97;17127440;28;20226;-31
2022/10/15 12:23:45;;;;;;;3.70;1.53;;;;;;;20.34;60.14;63345.59;17128018;28;20246;-31
2022/10/15 12:32:02;;;;;;;3.87;1.57;;;;;;;20.34;60.03;63345.59;17120527;28;20226;-31
2022/10/15 12:40:29;;;;;;;3.00;1.40;;;;;;;20.36;60.03;63347.84;17107420;28;20222;-31
2022/10/15 12:48:47;;;;;;;4.73;1.53;;;;;;;20.41;59.97;63353.47;17117806;28;20242;-31
2022/10/15 12:57:43;;;;;;;3.00;1.20;;;;;;;20.43;59.97;63355.72;17127096;28;20280;-31
2022/10/15 13:06:23;;;;;;;3.43;1.27;;;;;;;20.46;59.73;63358.53;17095005;28;20251;-31
2022/10/15 13:14:42;;;;;;;3.60;1.50;;;;;;;20.45;59.92;63358.00;17116166;28;20396;-31
2022/10/15 13:23:16;;;;;;;3.80;1.30;;;;;;;20.49;59.90;63361.38;17114497;28;20324;-31
2022/10/15 13:31:56;;;;;;;3.00;1.30;;;;;;;20.58;59.68;63374.16;17106885;28;20217;-31
2022/10/15 13:40:20;;;;;;;3.13;1.23;;;;;;;20.65;59.49;63382.63;17122986;28;20227;-31
2022/10/15 13:48:42;;;;;;;3.70;1.47;;;;;;;20.69;59.47;63383.94;17105368;28;20561;-31
2022/10/15 13:57:01;;;;;;;4.07;1.90;;;;;;;20.74;59.69;63386.97;17100826;28;20603;-31
2022/10/15 14:05:22;;;;;;;3.63;1.50;;;;;;;20.68;60.09;63380.19;17101113;28;20591;-31
2022/10/15 14:13:46;;;;;;;3.50;1.33;;;;;;;20.68;60.15;63377.56;17130089;28;20587;-31
2022/10/15 14:22:03;;;;;;;5.70;1.60;;;;;;;20.75;59.95;63387.53;17122313;28;20820;-31
2022/10/15 14:30:28;;;;;;;3.47;1.47;;;;;;;20.80;59.78;63393.72;17108386;28;20206;-33
2022/10/15 14:38:44;;;;;;;3.20;1.30;;;;;;;20.80;59.72;63393.16;17124962;28;20588;-32
2022/10/15 14:47:03;;;;;;;4.13;1.50;;;;;;;20.76;60.12;63391.81;17155397;28;20571;-33
2022/10/15 14:55:31;;;;;;;5.30;1.57;;;;;;;20.76;60.26;63397.09;17139062;28;20600;-33
2022/10/15 15:03:54;;;;;;;3.30;1.30;;;;;;;20.69;60.37;63383.94;17126384;28;20580;-33
2022/10/15 15:12:16;;;;;;;3.53;1.63;;;;;;;20.65;60.76;63374.19;17178780;23;20272;-37
2022/10/15 15:20:34;;;;;;;3.63;1.50;;;;;;;20.61;60.82;63374.91;17180912;28;20279;-37
2022/10/15 15:28:51;;;;;;;3.80;1.30;;;;;;;20.63;60.81;63374.56;17114381;28;20199;-40
2022/10/15 15:37:14;;;;;;;3.77;1.60;;;;;;;20.60;60.87;63371.16;17114030;28;20230;-37
2022/10/15 15:45:31;;;;;;;3.57;1.80;;;;;;;20.57;60.96;63365.72;17116822;28;20218;-36
2022/10/15 15:53:50;;;;;;;3.40;1.60;;;;;;;20.57;61.33;63370.97;17111728;28;20226;-35
2022/10/15 16:02:07;;;;;;;4.00;1.70;;;;;;;20.56;61.41;63369.28;17110811;28;20222;-36
2022/10/15 16:10:25;;;;;;;3.30;1.60;;;;;;;20.56;61.31;63369.28;17109682;28;20234;-38
2022/10/15 16:18:42;;;;;;;3.80;1.43;;;;;;;20.56;61.40;63369.84;17111173;28;20369;-36
2022/10/15 16:27:00;;;;;;;3.40;1.57;;;;;;;20.56;61.24;63369.28;17109519;28;20221;-35
2022/10/15 16:35:17;;;;;;;3.03;1.37;;;;;;;20.56;61.39;63364.03;17108088;28;20301;-35
2022/10/15 16:43:36;;;;;;;3.90;2.00;;;;;;;20.56;61.35;63364.59;17108960;28;20231;-35
2022/10/15 16:51:53;;;;;;;3.83;1.50;;;;;;;20.56;61.25;63369.84;17089835;28;20313;-34
2022/10/15 17:00:12;;;;;;;4.40;1.70;;;;;;;20.61;61.04;63380.16;17106643;28;20229;-34
2022/10/15 17:08:34;;;;;;;3.63;1.70;;;;;;;20.59;61.25;63370.06;17112789;28;20300;-39
2022/10/15 17:16:53;;;;;;;6.13;3.00;;;;;;;20.57;61.17;63370.97;17104235;28;20241;-39
2022/10/15 17:25:10;;;;;;;8.20;4.17;;;;;;;20.55;61.26;63362.91;17103221;28;20222;-38
2022/10/15 17:33:28;;;;;;;4.50;2.00;;;;;;;20.49;61.29;63361.38;17103868;28;20238;-37
2022/10/15 17:41:45;;;;;;;5.80;3.40;;;;;;;20.44;61.42;63351.63;17101577;28;20226;-37
2022/10/15 17:50:04;;;;;;;5.90;3.57;;;;;;;20.46;61.51;63356.47;17102778;28;20207;-37
2022/10/15 17:58:21;;;;;;;5.00;2.90;;;;;;;20.45;61.63;63355.34;17096139;28;20242;-38
2022/10/15 18:06:43;;;;;;;9.57;5.30;;;;;;;20.45;61.54;63358.00;17099286;28;20227;-35
2022/10/15 18:15:00;;;;;;;6.37;3.60;;;;;;;20.45;61.70;63358.00;17100843;28;20241;-38
2022/10/15 18:23:19;;;;;;;7.30;3.77;;;;;;;20.44;61.71;63356.31;17096554;28;20265;-36
2022/10/15 18:31:35;;;;;;;8.50;2.63;;;;;;;20.44;61.53;63356.88;17086910;28;20230;-37
2022/10/15 18:39:54;;;;;;;5.23;2.40;;;;;;;20.47;61.39;63354.44;17102902;28;20373;-37
2022/10/15 18:48:11;;;;;;;4.57;2.20;;;;;;;20.45;61.36;63350.09;17107776;28;20214;-37
2022/10/15 18:56:29;;;;;;;8.70;3.17;;;;;;;20.44;61.44;63356.31;17100938;28;20325;-36
2022/10/15 19:04:46;;;;;;;4.43;2.60;;;;;;;20.46;61.46;63358.53;17114146;28;20218;-36
2022/10/15 19:13:04;;;;;;;7.20;3.33;;;;;;;20.45;61.52;63357.44;17110728;28;20226;-36
2022/10/15 19:21:21;;;;;;;4.83;2.63;;;;;;;20.44;61.43;63359.50;17106900;28;20531;-36
2022/10/15 19:29:40;;;;;;;5.70;2.57;;;;;;;20.44;61.26;63356.88;17107652;28;20199;-36
2022/10/15 19:37:57;;;;;;;4.50;2.63;;;;;;;20.45;61.40;63360.63;17104108;28;20230;-37
2022/10/15 19:46:15;;;;;;;4.77;2.40;;;;;;;20.45;61.34;63354.81;17111935;28;20227;-37
2022/10/15 19:54:32;;;;;;;6.87;3.10;;;;;;;20.47;61.53;63357.06;17113531;28;20226;-35
2022/10/15 20:02:50;;;;;;;4.90;2.53;;;;;;;20.45;61.44;63355.34;17102551;28;20226;-35
2022/10/15 20:11:08;;;;;;;5.60;2.60;;;;;;;20.44;61.33;63354.25;17099990;28;20229;-34
2022/10/15 20:19:26;;;;;;;4.50;2.40;;;;;;;20.43;61.36;63353.09;17101162;28;20222;-35
2022/10/15 20:27:43;;;;;;;5.20;3.10;;;;;;;20.44;61.68;63356.31;17109281;28;20226;-35
2022/10/15 20:36:06;;;;;;;5.20;2.27;;;;;;;20.44;61.78;63356.88;17112262;28;20504;-34
2022/10/15 20:44:23;;;;;;;5.00;2.77;;;;;;;20.46;61.76;63353.84;17117949;28;20231;-35
2022/10/15 20:52:42;;;;;;;5.40;2.37;;;;;;;20.41;62.05;63350.84;17110917;28;20234;-35
2022/10/15 21:00:58;;;;;;;4.80;2.33;;;;;;;20.36;62.16;63342.59;17227040;22;20325;-37
2022/10/15 21:09:17;;;;;;;5.03;2.70;;;;;;;20.35;62.06;63346.72;17137214;23;20231;-34
2022/10/15 21:17:33;;;;;;;8.93;2.53;;;;;;;20.35;62.22;63344.09;17225498;28;20222;-33
2022/10/15 21:25:52;;;;;;;4.77;2.50;;;;;;;20.35;62.15;63341.47;17200048;28;20256;-33
2022/10/15 21:34:08;;;;;;;4.73;2.57;;;;;;;20.33;62.08;63344.47;17178322;28;20234;-33
2022/10/15 21:42:27;;;;;;;4.63;2.43;;;;;;;20.37;61.89;63353.66;17190759;28;20229;-34
2022/10/15 21:50:46;;;;;;;6.17;2.93;;;;;;;20.38;61.97;63347.47;17221842;28;20217;-35
2022/10/15 21:59:05;;;;;;;5.63;2.70;;;;;;;20.39;62.09;63345.97;17203868;28;20224;-34
2022/10/15 22:07:22;;;;;;;4.53;2.20;;;;;;;20.42;62.05;63351.41;17200977;28;20534;-34
2022/10/15 22:15:40;;;;;;;4.80;2.60;;;;;;;20.37;62.26;63346.34;17186632;28;20233;-35
2022/10/15 22:23:59;;;;;;;4.77;2.63;;;;;;;20.38;62.16;63349.53;17218598;28;20225;-35
2022/10/15 22:32:17;;;;;;;5.77;2.80;;;;;;;20.38;62.03;63347.47;17178881;28;20229;-33
2022/10/15 22:40:34;;;;;;;4.63;2.43;;;;;;;20.39;61.98;63350.66;17195931;28;20256;-33
2022/10/15 22:48:52;;;;;;;7.83;3.33;;;;;;;20.38;61.69;63349.53;17194733;28;20293;-33
2022/10/15 22:57:09;;;;;;;4.43;2.33;;;;;;;20.38;61.92;63352.72;17206623;28;20225;-33
2022/10/15 23:05:27;;;;;;;6.10;3.00;;;;;;;20.35;61.76;63346.72;17249156;28;20240;-33
2022/10/15 23:13:45;;;;;;;5.90;2.80;;;;;;;20.35;61.70;63343.50;17227287;28;20240;-33
2022/10/15 23:22:03;;;;;;;4.40;2.50;;;;;;;20.36;61.69;63342.59;17190394;28;20245;-33
2022/10/15 23:30:20;;;;;;;5.30;2.53;;;;;;;20.34;61.75;63342.97;17203239;28;20225;-33
2022/10/15 23:38:39;;;;;;;5.03;2.80;;;;;;;20.32;61.69;63340.72;17216264;28;20231;-33
2022/10/15 23:46:55;;;;;;;5.80;3.20;;;;;;;20.34;61.80;63345.03;17207516;28;20316;-33
2022/10/15 23:55:14;;;;;;;6.00;3.10;;;;;;;20.34;62.24;63345.03;17204242;28;20229;-33
